sensor_id;sensor_type;location;lat;lon;timestamp;P1;durP1;ratioP1;P2;durP2;ratioP2
20865;SDS011;10593;48.398;10.698;2022-08-05T00:00:56;1.83;;;1.73;;
20865;SDS011;10593;48.398;10.698;2022-08-05T00:03:21;1.77;;;1.67;;
20865;SDS011;10593;48.398;10.698;2022-08-05T00:05:47;2.07;;;1.70;;
20865;SDS011;10593;48.398;10.698;2022-08-05T00:08:13;1.97;;;1.87;;
20865;SDS011;10593;48.398;10.698;2022-08-05T00:10:38;1.93;;;1.83;;
20865;SDS011;10593;48.398;10.698;2022-08-05T00:13:04;1.90;;;1.80;;
20865;SDS011;10593;48.398;10.698;2022-08-05T00:15:29;1.97;;;1.83;;
20865;SDS011;10593;48.398;10.698;2022-08-05T00:17:55;2.17;;;1.80;;
20865;SDS011;10593;48.398;10.698;2022-08-05T00:20:21;1.90;;;1.80;;
20865;SDS011;10593;48.398;10.698;2022-08-05T00:22:46;1.77;;;1.67;;
20865;SDS011;10593;48.398;10.698;2022-08-05T00:25:12;1.90;;;1.80;;
20865;SDS011;10593;48.398;10.698;2022-08-05T00:27:38;2.07;;;1.90;;
20865;SDS011;10593;48.398;10.698;2022-08-05T00:30:04;1.80;;;1.70;;
20865;SDS011;10593;48.398;10.698;2022-08-05T00:32:30;1.80;;;1.70;;
20865;SDS011;10593;48.398;10.698;2022-08-05T00:34:56;1.83;;;1.73;;
20865;SDS011;10593;48.398;10.698;2022-08-05T00:37:22;2.00;;;1.90;;
20865;SDS011;10593;48.398;10.698;2022-08-05T00:39:47;2.00;;;1.90;;
20865;SDS011;10593;48.398;10.698;2022-08-05T00:42:13;1.70;;;1.60;;
20865;SDS011;10593;48.398;10.698;2022-08-05T00:44:53;2.00;;;1.90;;
20865;SDS011;10593;48.398;10.698;2022-08-05T00:47:19;2.20;;;2.00;;
20865;SDS011;10593;48.398;10.698;2022-08-05T00:49:44;1.53;;;1.47;;
20865;SDS011;10593;48.398;10.698;2022-08-05T00:52:10;1.80;;;1.70;;
20865;SDS011;10593;48.398;10.698;2022-08-05T00:54:36;2.10;;;2.00;;
20865;SDS011;10593;48.398;10.698;2022-08-05T00:57:01;1.60;;;1.60;;
20865;SDS011;10593;48.398;10.698;2022-08-05T00:59:28;1.90;;;1.80;;
20865;SDS011;10593;48.398;10.698;2022-08-05T01:01:53;2.00;;;1.80;;
20865;SDS011;10593;48.398;10.698;2022-08-05T01:04:22;2.00;;;1.90;;
20865;SDS011;10593;48.398;10.698;2022-08-05T01:06:47;1.90;;;1.80;;
20865;SDS011;10593;48.398;10.698;2022-08-05T01:09:13;1.90;;;1.80;;
20865;SDS011;10593;48.398;10.698;2022-08-05T01:11:39;2.13;;;1.93;;
20865;SDS011;10593;48.398;10.698;2022-08-05T01:16:53;1.73;;;1.57;;
20865;SDS011;10593;48.398;10.698;2022-08-05T01:22:16;1.90;;;1.80;;
20865;SDS011;10593;48.398;10.698;2022-08-05T01:28:22;1.97;;;1.87;;
20865;SDS011;10593;48.398;10.698;2022-08-05T01:31:10;1.77;;;1.67;;
20865;SDS011;10593;48.398;10.698;2022-08-05T01:34:12;1.90;;;1.80;;
20865;SDS011;10593;48.398;10.698;2022-08-05T01:36:49;1.87;;;1.77;;
20865;SDS011;10593;48.398;10.698;2022-08-05T01:39:22;1.93;;;1.83;;
20865;SDS011;10593;48.398;10.698;2022-08-05T01:41:51;1.80;;;1.70;;
20865;SDS011;10593;48.398;10.698;2022-08-05T01:44:18;1.83;;;1.73;;
20865;SDS011;10593;48.398;10.698;2022-08-05T01:46:46;3.87;;;1.80;;
20865;SDS011;10593;48.398;10.698;2022-08-05T01:49:15;1.97;;;1.87;;
20865;SDS011;10593;48.398;10.698;2022-08-05T01:51:46;1.80;;;1.70;;
20865;SDS011;10593;48.398;10.698;2022-08-05T01:54:15;1.90;;;1.80;;
20865;SDS011;10593;48.398;10.698;2022-08-05T01:56:44;1.67;;;1.60;;
20865;SDS011;10593;48.398;10.698;2022-08-05T01:59:15;1.80;;;1.70;;
20865;SDS011;10593;48.398;10.698;2022-08-05T02:01:46;1.90;;;1.80;;
20865;SDS011;10593;48.398;10.698;2022-08-05T02:04:14;1.93;;;1.80;;
20865;SDS011;10593;48.398;10.698;2022-08-05T02:06:42;2.03;;;1.93;;
20865;SDS011;10593;48.398;10.698;2022-08-05T02:09:08;1.70;;;1.60;;
20865;SDS011;10593;48.398;10.698;2022-08-05T02:12:14;1.70;;;1.60;;
20865;SDS011;10593;48.398;10.698;2022-08-05T02:14:48;2.20;;;2.00;;
20865;SDS011;10593;48.398;10.698;2022-08-05T02:17:50;1.80;;;1.70;;
20865;SDS011;10593;48.398;10.698;2022-08-05T02:20:23;2.40;;;2.20;;
20865;SDS011;10593;48.398;10.698;2022-08-05T02:22:57;2.90;;;2.00;;
20865;SDS011;10593;48.398;10.698;2022-08-05T02:25:27;2.00;;;1.90;;
20865;SDS011;10593;48.398;10.698;2022-08-05T02:28:04;2.43;;;2.17;;
20865;SDS011;10593;48.398;10.698;2022-08-05T02:30:38;2.40;;;2.03;;
20865;SDS011;10593;48.398;10.698;2022-08-05T02:33:14;2.07;;;1.97;;
20865;SDS011;10593;48.398;10.698;2022-08-05T02:35:42;1.93;;;1.80;;
20865;SDS011;10593;48.398;10.698;2022-08-05T02:38:10;2.00;;;1.90;;
20865;SDS011;10593;48.398;10.698;2022-08-05T02:40:39;1.90;;;1.80;;
20865;SDS011;10593;48.398;10.698;2022-08-05T02:43:10;2.30;;;2.20;;
20865;SDS011;10593;48.398;10.698;2022-08-05T02:45:39;2.07;;;1.97;;
20865;SDS011;10593;48.398;10.698;2022-08-05T02:48:08;1.87;;;1.77;;
20865;SDS011;10593;48.398;10.698;2022-08-05T02:50:35;1.90;;;1.80;;
20865;SDS011;10593;48.398;10.698;2022-08-05T02:53:02;2.10;;;2.00;;
20865;SDS011;10593;48.398;10.698;2022-08-05T02:55:29;2.30;;;1.80;;
20865;SDS011;10593;48.398;10.698;2022-08-05T02:57:58;1.93;;;1.83;;
20865;SDS011;10593;48.398;10.698;2022-08-05T03:00:26;2.03;;;1.93;;
20865;SDS011;10593;48.398;10.698;2022-08-05T03:02:53;2.20;;;2.00;;
20865;SDS011;10593;48.398;10.698;2022-08-05T03:05:21;1.97;;;1.87;;
20865;SDS011;10593;48.398;10.698;2022-08-05T03:07:47;2.03;;;1.93;;
20865;SDS011;10593;48.398;10.698;2022-08-05T03:10:14;1.83;;;1.70;;
20865;SDS011;10593;48.398;10.698;2022-08-05T03:12:40;2.60;;;1.80;;
20865;SDS011;10593;48.398;10.698;2022-08-05T03:15:07;2.90;;;1.73;;
20865;SDS011;10593;48.398;10.698;2022-08-05T03:17:34;1.87;;;1.77;;
20865;SDS011;10593;48.398;10.698;2022-08-05T03:20:01;1.80;;;1.70;;
20865;SDS011;10593;48.398;10.698;2022-08-05T03:22:28;1.67;;;1.53;;
20865;SDS011;10593;48.398;10.698;2022-08-05T03:24:54;9.53;;;2.53;;
20865;SDS011;10593;48.398;10.698;2022-08-05T03:27:21;1.97;;;1.87;;
20865;SDS011;10593;48.398;10.698;2022-08-05T03:29:47;1.60;;;1.50;;
20865;SDS011;10593;48.398;10.698;2022-08-05T03:32:13;2.00;;;1.80;;
20865;SDS011;10593;48.398;10.698;2022-08-05T03:34:41;3.57;;;1.80;;
20865;SDS011;10593;48.398;10.698;2022-08-05T03:37:08;4.30;;;1.90;;
20865;SDS011;10593;48.398;10.698;2022-08-05T03:39:34;1.83;;;1.73;;
20865;SDS011;10593;48.398;10.698;2022-08-05T03:41:59;2.10;;;2.00;;
20865;SDS011;10593;48.398;10.698;2022-08-05T03:44:25;2.47;;;1.83;;
20865;SDS011;10593;48.398;10.698;2022-08-05T03:46:51;1.80;;;1.70;;
20865;SDS011;10593;48.398;10.698;2022-08-05T03:49:16;3.87;;;2.00;;
20865;SDS011;10593;48.398;10.698;2022-08-05T03:51:44;3.60;;;2.43;;
20865;SDS011;10593;48.398;10.698;2022-08-05T03:54:26;2.00;;;1.90;;
20865;SDS011;10593;48.398;10.698;2022-08-05T03:56:59;2.07;;;1.70;;
20865;SDS011;10593;48.398;10.698;2022-08-05T03:59:30;2.20;;;1.80;;
20865;SDS011;10593;48.398;10.698;2022-08-05T04:02:04;2.07;;;1.90;;
20865;SDS011;10593;48.398;10.698;2022-08-05T04:04:31;2.17;;;2.07;;
20865;SDS011;10593;48.398;10.698;2022-08-05T04:06:59;1.70;;;1.60;;
20865;SDS011;10593;48.398;10.698;2022-08-05T04:09:27;1.90;;;1.80;;
20865;SDS011;10593;48.398;10.698;2022-08-05T04:11:54;2.17;;;2.00;;
20865;SDS011;10593;48.398;10.698;2022-08-05T04:14:20;2.40;;;2.27;;
20865;SDS011;10593;48.398;10.698;2022-08-05T04:16:46;3.53;;;2.07;;
20865;SDS011;10593;48.398;10.698;2022-08-05T04:19:12;2.30;;;2.10;;
20865;SDS011;10593;48.398;10.698;2022-08-05T04:21:39;2.20;;;2.10;;
20865;SDS011;10593;48.398;10.698;2022-08-05T04:24:05;2.10;;;2.00;;
20865;SDS011;10593;48.398;10.698;2022-08-05T04:26:31;2.47;;;2.20;;
20865;SDS011;10593;48.398;10.698;2022-08-05T04:28:57;3.33;;;2.10;;
20865;SDS011;10593;48.398;10.698;2022-08-05T04:31:23;2.70;;;1.90;;
20865;SDS011;10593;48.398;10.698;2022-08-05T04:33:49;1.90;;;1.80;;
20865;SDS011;10593;48.398;10.698;2022-08-05T04:36:15;2.00;;;1.90;;
20865;SDS011;10593;48.398;10.698;2022-08-05T04:38:41;2.00;;;1.90;;
20865;SDS011;10593;48.398;10.698;2022-08-05T04:41:08;2.60;;;2.40;;
20865;SDS011;10593;48.398;10.698;2022-08-05T04:43:33;2.60;;;2.50;;
20865;SDS011;10593;48.398;10.698;2022-08-05T04:45:59;2.70;;;2.50;;
20865;SDS011;10593;48.398;10.698;2022-08-05T04:48:25;2.60;;;2.40;;
20865;SDS011;10593;48.398;10.698;2022-08-05T04:50:51;2.20;;;2.00;;
20865;SDS011;10593;48.398;10.698;2022-08-05T04:53:17;2.10;;;2.00;;
20865;SDS011;10593;48.398;10.698;2022-08-05T04:55:43;1.90;;;1.70;;
20865;SDS011;10593;48.398;10.698;2022-08-05T04:58:11;2.37;;;2.20;;
20865;SDS011;10593;48.398;10.698;2022-08-05T05:00:40;2.77;;;2.07;;
20865;SDS011;10593;48.398;10.698;2022-08-05T05:03:06;1.93;;;1.83;;
20865;SDS011;10593;48.398;10.698;2022-08-05T05:05:33;2.07;;;1.97;;
20865;SDS011;10593;48.398;10.698;2022-08-05T05:08:01;2.33;;;2.23;;
20865;SDS011;10593;48.398;10.698;2022-08-05T05:10:36;3.80;;;2.23;;
20865;SDS011;10593;48.398;10.698;2022-08-05T05:13:06;2.80;;;2.60;;
20865;SDS011;10593;48.398;10.698;2022-08-05T05:15:33;2.30;;;2.17;;
20865;SDS011;10593;48.398;10.698;2022-08-05T05:17:59;3.93;;;2.30;;
20865;SDS011;10593;48.398;10.698;2022-08-05T05:20:25;2.57;;;2.37;;
20865;SDS011;10593;48.398;10.698;2022-08-05T05:22:50;2.10;;;2.00;;
20865;SDS011;10593;48.398;10.698;2022-08-05T05:25:16;4.27;;;2.10;;
20865;SDS011;10593;48.398;10.698;2022-08-05T05:27:42;2.40;;;2.20;;
20865;SDS011;10593;48.398;10.698;2022-08-05T05:30:07;2.23;;;2.10;;
20865;SDS011;10593;48.398;10.698;2022-08-05T05:32:34;3.50;;;2.20;;
20865;SDS011;10593;48.398;10.698;2022-08-05T05:34:59;2.23;;;2.13;;
20865;SDS011;10593;48.398;10.698;2022-08-05T05:37:25;3.83;;;2.27;;
20865;SDS011;10593;48.398;10.698;2022-08-05T05:39:51;3.03;;;2.00;;
20865;SDS011;10593;48.398;10.698;2022-08-05T05:42:16;2.93;;;2.27;;
20865;SDS011;10593;48.398;10.698;2022-08-05T05:44:42;2.87;;;2.60;;
20865;SDS011;10593;48.398;10.698;2022-08-05T05:47:08;2.83;;;2.63;;
20865;SDS011;10593;48.398;10.698;2022-08-05T05:49:33;2.47;;;2.30;;
20865;SDS011;10593;48.398;10.698;2022-08-05T05:51:59;3.33;;;2.10;;
20865;SDS011;10593;48.398;10.698;2022-08-05T05:54:25;2.23;;;2.03;;
20865;SDS011;10593;48.398;10.698;2022-08-05T05:56:51;3.27;;;2.13;;
20865;SDS011;10593;48.398;10.698;2022-08-05T05:59:16;2.43;;;2.23;;
20865;SDS011;10593;48.398;10.698;2022-08-05T06:01:42;2.40;;;2.30;;
20865;SDS011;10593;48.398;10.698;2022-08-05T06:04:09;4.43;;;2.40;;
20865;SDS011;10593;48.398;10.698;2022-08-05T06:06:37;2.87;;;2.60;;
20865;SDS011;10593;48.398;10.698;2022-08-05T06:09:09;2.80;;;2.60;;
20865;SDS011;10593;48.398;10.698;2022-08-05T06:11:35;3.00;;;2.63;;
20865;SDS011;10593;48.398;10.698;2022-08-05T06:14:01;2.53;;;2.33;;
20865;SDS011;10593;48.398;10.698;2022-08-05T06:16:27;2.37;;;2.17;;
20865;SDS011;10593;48.398;10.698;2022-08-05T06:18:52;2.70;;;2.50;;
20865;SDS011;10593;48.398;10.698;2022-08-05T06:21:18;3.10;;;2.10;;
20865;SDS011;10593;48.398;10.698;2022-08-05T06:23:44;3.00;;;2.67;;
20865;SDS011;10593;48.398;10.698;2022-08-05T06:26:10;2.30;;;2.10;;
20865;SDS011;10593;48.398;10.698;2022-08-05T06:28:36;2.50;;;2.30;;
20865;SDS011;10593;48.398;10.698;2022-08-05T06:31:02;2.67;;;2.43;;
20865;SDS011;10593;48.398;10.698;2022-08-05T06:33:29;5.03;;;2.30;;
20865;SDS011;10593;48.398;10.698;2022-08-05T06:35:54;3.50;;;2.17;;
20865;SDS011;10593;48.398;10.698;2022-08-05T06:38:20;3.40;;;2.07;;
20865;SDS011;10593;48.398;10.698;2022-08-05T06:40:46;1.77;;;1.67;;
20865;SDS011;10593;48.398;10.698;2022-08-05T06:43:12;2.50;;;2.30;;
20865;SDS011;10593;48.398;10.698;2022-08-05T06:45:37;2.17;;;2.03;;
20865;SDS011;10593;48.398;10.698;2022-08-05T06:48:03;3.93;;;2.00;;
20865;SDS011;10593;48.398;10.698;2022-08-05T06:50:29;4.13;;;2.03;;
20865;SDS011;10593;48.398;10.698;2022-08-05T06:52:55;2.60;;;2.40;;
20865;SDS011;10593;48.398;10.698;2022-08-05T06:55:20;3.40;;;2.37;;
20865;SDS011;10593;48.398;10.698;2022-08-05T06:57:46;4.70;;;2.27;;
20865;SDS011;10593;48.398;10.698;2022-08-05T07:00:12;3.63;;;2.10;;
20865;SDS011;10593;48.398;10.698;2022-08-05T07:02:45;9.37;;;4.10;;
20865;SDS011;10593;48.398;10.698;2022-08-05T07:05:11;4.60;;;2.70;;
20865;SDS011;10593;48.398;10.698;2022-08-05T07:07:39;4.60;;;2.40;;
20865;SDS011;10593;48.398;10.698;2022-08-05T07:10:05;3.13;;;1.90;;
20865;SDS011;10593;48.398;10.698;2022-08-05T07:12:32;2.40;;;2.20;;
20865;SDS011;10593;48.398;10.698;2022-08-05T07:15:29;3.13;;;2.03;;
20865;SDS011;10593;48.398;10.698;2022-08-05T07:18:13;3.20;;;2.10;;
20865;SDS011;10593;48.398;10.698;2022-08-05T07:20:38;4.30;;;2.17;;
20865;SDS011;10593;48.398;10.698;2022-08-05T07:23:04;5.10;;;2.70;;
20865;SDS011;10593;48.398;10.698;2022-08-05T07:25:30;4.80;;;2.60;;
20865;SDS011;10593;48.398;10.698;2022-08-05T07:27:56;4.83;;;2.47;;
20865;SDS011;10593;48.398;10.698;2022-08-05T07:30:21;3.80;;;2.67;;
20865;SDS011;10593;48.398;10.698;2022-08-05T07:32:47;2.20;;;2.00;;
20865;SDS011;10593;48.398;10.698;2022-08-05T07:35:13;2.93;;;2.57;;
20865;SDS011;10593;48.398;10.698;2022-08-05T07:37:39;3.30;;;1.90;;
20865;SDS011;10593;48.398;10.698;2022-08-05T07:40:05;3.63;;;2.70;;
20865;SDS011;10593;48.398;10.698;2022-08-05T07:42:33;5.17;;;3.00;;
20865;SDS011;10593;48.398;10.698;2022-08-05T07:44:59;5.90;;;3.20;;
20865;SDS011;10593;48.398;10.698;2022-08-05T07:47:24;2.60;;;2.40;;
20865;SDS011;10593;48.398;10.698;2022-08-05T07:49:50;5.30;;;2.37;;
20865;SDS011;10593;48.398;10.698;2022-08-05T07:52:20;4.20;;;2.43;;
20865;SDS011;10593;48.398;10.698;2022-08-05T07:54:46;2.03;;;1.90;;
20865;SDS011;10593;48.398;10.698;2022-08-05T07:57:12;3.50;;;2.10;;
20865;SDS011;10593;48.398;10.698;2022-08-05T07:59:37;5.53;;;2.10;;
20865;SDS011;10593;48.398;10.698;2022-08-05T08:02:04;2.80;;;2.03;;
20865;SDS011;10593;48.398;10.698;2022-08-05T08:04:31;2.00;;;1.60;;
20865;SDS011;10593;48.398;10.698;2022-08-05T08:06:57;7.83;;;2.20;;
20865;SDS011;10593;48.398;10.698;2022-08-05T08:09:24;3.10;;;1.90;;
20865;SDS011;10593;48.398;10.698;2022-08-05T08:11:51;2.97;;;2.00;;
20865;SDS011;10593;48.398;10.698;2022-08-05T08:14:17;2.50;;;1.87;;
20865;SDS011;10593;48.398;10.698;2022-08-05T08:16:42;3.53;;;1.97;;
20865;SDS011;10593;48.398;10.698;2022-08-05T08:19:09;2.73;;;1.97;;
20865;SDS011;10593;48.398;10.698;2022-08-05T08:21:36;3.00;;;1.63;;
20865;SDS011;10593;48.398;10.698;2022-08-05T08:24:02;9.00;;;2.07;;
20865;SDS011;10593;48.398;10.698;2022-08-05T08:26:29;2.17;;;1.83;;
20865;SDS011;10593;48.398;10.698;2022-08-05T08:28:57;4.50;;;1.97;;
20865;SDS011;10593;48.398;10.698;2022-08-05T08:31:23;1.70;;;1.60;;
20865;SDS011;10593;48.398;10.698;2022-08-05T08:33:49;2.83;;;2.00;;
20865;SDS011;10593;48.398;10.698;2022-08-05T08:36:14;3.03;;;2.00;;
20865;SDS011;10593;48.398;10.698;2022-08-05T08:38:40;2.30;;;2.10;;
20865;SDS011;10593;48.398;10.698;2022-08-05T08:41:06;2.53;;;2.00;;
20865;SDS011;10593;48.398;10.698;2022-08-05T08:43:36;2.97;;;1.60;;
20865;SDS011;10593;48.398;10.698;2022-08-05T08:46:02;4.20;;;2.10;;
20865;SDS011;10593;48.398;10.698;2022-08-05T08:48:30;2.17;;;1.73;;
20865;SDS011;10593;48.398;10.698;2022-08-05T08:50:59;2.00;;;1.80;;
20865;SDS011;10593;48.398;10.698;2022-08-05T08:53:27;2.70;;;1.90;;
20865;SDS011;10593;48.398;10.698;2022-08-05T08:56:01;2.37;;;1.60;;
20865;SDS011;10593;48.398;10.698;2022-08-05T08:58:28;1.60;;;1.50;;
20865;SDS011;10593;48.398;10.698;2022-08-05T09:00:56;1.70;;;1.60;;
20865;SDS011;10593;48.398;10.698;2022-08-05T09:03:22;1.70;;;1.60;;
20865;SDS011;10593;48.398;10.698;2022-08-05T09:05:49;2.23;;;1.50;;
20865;SDS011;10593;48.398;10.698;2022-08-05T09:08:15;2.03;;;1.77;;
20865;SDS011;10593;48.398;10.698;2022-08-05T09:10:41;1.60;;;1.50;;
20865;SDS011;10593;48.398;10.698;2022-08-05T09:13:09;1.83;;;1.23;;
20865;SDS011;10593;48.398;10.698;2022-08-05T09:15:40;1.60;;;1.50;;
20865;SDS011;10593;48.398;10.698;2022-08-05T09:18:07;1.70;;;1.60;;
20865;SDS011;10593;48.398;10.698;2022-08-05T09:20:34;1.93;;;1.50;;
20865;SDS011;10593;48.398;10.698;2022-08-05T09:23:08;1.50;;;1.40;;
20865;SDS011;10593;48.398;10.698;2022-08-05T09:25:38;2.30;;;1.50;;
20865;SDS011;10593;48.398;10.698;2022-08-05T09:28:10;1.40;;;1.40;;
20865;SDS011;10593;48.398;10.698;2022-08-05T09:30:53;1.53;;;1.43;;
20865;SDS011;10593;48.398;10.698;2022-08-05T09:33:23;2.03;;;1.43;;
20865;SDS011;10593;48.398;10.698;2022-08-05T09:36:07;2.13;;;1.40;;
20865;SDS011;10593;48.398;10.698;2022-08-05T09:38:33;1.40;;;1.30;;
20865;SDS011;10593;48.398;10.698;2022-08-05T09:41:03;1.40;;;1.30;;
20865;SDS011;10593;48.398;10.698;2022-08-05T09:43:33;1.33;;;1.33;;
20865;SDS011;10593;48.398;10.698;2022-08-05T09:46:02;1.57;;;1.47;;
20865;SDS011;10593;48.398;10.698;2022-08-05T09:48:32;1.67;;;1.57;;
20865;SDS011;10593;48.398;10.698;2022-08-05T09:50:59;1.47;;;1.37;;
20865;SDS011;10593;48.398;10.698;2022-08-05T09:53:45;1.63;;;1.53;;
20865;SDS011;10593;48.398;10.698;2022-08-05T09:56:15;1.90;;;1.50;;
20865;SDS011;10593;48.398;10.698;2022-08-05T09:59:06;1.30;;;1.30;;
20865;SDS011;10593;48.398;10.698;2022-08-05T10:01:36;1.43;;;1.33;;
20865;SDS011;10593;48.398;10.698;2022-08-05T10:04:10;1.40;;;1.40;;
20865;SDS011;10593;48.398;10.698;2022-08-05T10:06:39;1.70;;;1.60;;
20865;SDS011;10593;48.398;10.698;2022-08-05T10:09:10;1.40;;;1.30;;
20865;SDS011;10593;48.398;10.698;2022-08-05T10:11:39;1.57;;;1.47;;
20865;SDS011;10593;48.398;10.698;2022-08-05T10:16:49;1.70;;;1.60;;
20865;SDS011;10593;48.398;10.698;2022-08-05T10:19:16;2.20;;;2.10;;
20865;SDS011;10593;48.398;10.698;2022-08-05T10:21:42;2.03;;;1.83;;
20865;SDS011;10593;48.398;10.698;2022-08-05T10:24:09;1.80;;;1.70;;
20865;SDS011;10593;48.398;10.698;2022-08-05T10:26:42;2.27;;;1.83;;
20865;SDS011;10593;48.398;10.698;2022-08-05T10:29:11;1.63;;;1.53;;
20865;SDS011;10593;48.398;10.698;2022-08-05T10:31:37;2.10;;;1.70;;
20865;SDS011;10593;48.398;10.698;2022-08-05T10:34:04;2.07;;;1.23;;
20865;SDS011;10593;48.398;10.698;2022-08-05T10:36:37;2.50;;;1.60;;
20865;SDS011;10593;48.398;10.698;2022-08-05T10:39:06;2.83;;;2.57;;
20865;SDS011;10593;48.398;10.698;2022-08-05T10:41:52;2.47;;;2.27;;
20865;SDS011;10593;48.398;10.698;2022-08-05T10:44:26;2.33;;;1.90;;
20865;SDS011;10593;48.398;10.698;2022-08-05T10:46:55;1.88;;;1.60;;
20865;SDS011;10593;48.398;10.698;2022-08-05T10:49:22;2.07;;;1.70;;
20865;SDS011;10593;48.398;10.698;2022-08-05T10:51:51;5.70;;;2.57;;
20865;SDS011;10593;48.398;10.698;2022-08-05T10:54:23;1.33;;;1.23;;
20865;SDS011;10593;48.398;10.698;2022-08-05T10:57:11;1.57;;;1.43;;
20865;SDS011;10593;48.398;10.698;2022-08-05T10:59:49;1.67;;;1.50;;
20865;SDS011;10593;48.398;10.698;2022-08-05T11:05:27;1.33;;;1.23;;
20865;SDS011;10593;48.398;10.698;2022-08-05T11:07:57;2.50;;;1.70;;
20865;SDS011;10593;48.398;10.698;2022-08-05T11:10:28;1.80;;;1.50;;
20865;SDS011;10593;48.398;10.698;2022-08-05T11:12:56;1.90;;;1.20;;
20865;SDS011;10593;48.398;10.698;2022-08-05T11:15:33;3.97;;;1.60;;
20865;SDS011;10593;48.398;10.698;2022-08-05T11:20:58;1.75;;;1.50;;
20865;SDS011;10593;48.398;10.698;2022-08-05T11:23:28;1.50;;;1.30;;
20865;SDS011;10593;48.398;10.698;2022-08-05T11:28:45;2.42;;;1.50;;
20865;SDS011;10593;48.398;10.698;2022-08-05T11:36:11;1.90;;;1.43;;
20865;SDS011;10593;48.398;10.698;2022-08-05T11:41:12;1.70;;;1.33;;
20865;SDS011;10593;48.398;10.698;2022-08-05T11:43:55;1.88;;;1.65;;
20865;SDS011;10593;48.398;10.698;2022-08-05T11:46:24;3.93;;;1.30;;
20865;SDS011;10593;48.398;10.698;2022-08-05T11:48:55;1.70;;;1.60;;
20865;SDS011;10593;48.398;10.698;2022-08-05T11:51:23;2.43;;;1.53;;
20865;SDS011;10593;48.398;10.698;2022-08-05T11:53:51;2.87;;;1.57;;
20865;SDS011;10593;48.398;10.698;2022-08-05T11:56:18;1.60;;;1.47;;
20865;SDS011;10593;48.398;10.698;2022-08-05T11:58:45;1.85;;;1.30;;
20865;SDS011;10593;48.398;10.698;2022-08-05T12:01:16;1.45;;;1.45;;
20865;SDS011;10593;48.398;10.698;2022-08-05T12:03:46;2.50;;;1.65;;
20865;SDS011;10593;48.398;10.698;2022-08-05T12:06:13;1.97;;;1.63;;
20865;SDS011;10593;48.398;10.698;2022-08-05T12:08:41;1.63;;;1.52;;
20865;SDS011;10593;48.398;10.698;2022-08-05T12:11:22;1.88;;;1.42;;
20865;SDS011;10593;48.398;10.698;2022-08-05T12:13:56;4.13;;;1.70;;
20865;SDS011;10593;48.398;10.698;2022-08-05T12:16:30;3.13;;;1.40;;
20865;SDS011;10593;48.398;10.698;2022-08-05T12:19:02;2.03;;;1.60;;
20865;SDS011;10593;48.398;10.698;2022-08-05T12:21:33;1.60;;;1.33;;
20865;SDS011;10593;48.398;10.698;2022-08-05T12:24:07;1.52;;;1.42;;
20865;SDS011;10593;48.398;10.698;2022-08-05T12:26:39;2.07;;;1.87;;
20865;SDS011;10593;48.398;10.698;2022-08-05T12:29:13;1.83;;;1.73;;
20865;SDS011;10593;48.398;10.698;2022-08-05T12:31:48;1.40;;;1.33;;
20865;SDS011;10593;48.398;10.698;2022-08-05T12:34:23;1.40;;;1.30;;
20865;SDS011;10593;48.398;10.698;2022-08-05T12:36:57;2.03;;;1.92;;
20865;SDS011;10593;48.398;10.698;2022-08-05T12:39:34;1.10;;;1.10;;
20865;SDS011;10593;48.398;10.698;2022-08-05T12:42:01;1.70;;;1.30;;
20865;SDS011;10593;48.398;10.698;2022-08-05T12:44:27;1.48;;;1.38;;
20865;SDS011;10593;48.398;10.698;2022-08-05T12:46:53;1.40;;;1.30;;
20865;SDS011;10593;48.398;10.698;2022-08-05T12:49:20;2.45;;;1.42;;
20865;SDS011;10593;48.398;10.698;2022-08-05T12:51:55;2.33;;;1.65;;
20865;SDS011;10593;48.398;10.698;2022-08-05T12:59:25;3.65;;;1.40;;
20865;SDS011;10593;48.398;10.698;2022-08-05T13:01:56;4.55;;;1.98;;
20865;SDS011;10593;48.398;10.698;2022-08-05T13:04:27;1.77;;;1.63;;
20865;SDS011;10593;48.398;10.698;2022-08-05T13:07:01;2.07;;;1.60;;
20865;SDS011;10593;48.398;10.698;2022-08-05T13:09:36;4.40;;;1.55;;
20865;SDS011;10593;48.398;10.698;2022-08-05T13:12:12;3.03;;;1.65;;
20865;SDS011;10593;48.398;10.698;2022-08-05T13:14:42;1.67;;;1.58;;
20865;SDS011;10593;48.398;10.698;2022-08-05T13:17:15;1.70;;;1.60;;
20865;SDS011;10593;48.398;10.698;2022-08-05T13:20:09;1.65;;;1.58;;
20865;SDS011;10593;48.398;10.698;2022-08-05T13:22:46;1.52;;;1.50;;
20865;SDS011;10593;48.398;10.698;2022-08-05T13:25:15;1.67;;;1.58;;
20865;SDS011;10593;48.398;10.698;2022-08-05T13:30:15;1.60;;;1.50;;
20865;SDS011;10593;48.398;10.698;2022-08-05T13:32:45;1.63;;;1.52;;
20865;SDS011;10593;48.398;10.698;2022-08-05T13:35:12;2.15;;;1.80;;
20865;SDS011;10593;48.398;10.698;2022-08-05T13:37:40;1.80;;;1.30;;
20865;SDS011;10593;48.398;10.698;2022-08-05T13:40:07;2.90;;;1.73;;
20865;SDS011;10593;48.398;10.698;2022-08-05T13:42:34;1.77;;;1.67;;
20865;SDS011;10593;48.398;10.698;2022-08-05T13:44:59;3.10;;;1.75;;
20865;SDS011;10593;48.398;10.698;2022-08-05T13:47:25;3.17;;;1.63;;
20865;SDS011;10593;48.398;10.698;2022-08-05T13:49:51;1.80;;;1.67;;
20865;SDS011;10593;48.398;10.698;2022-08-05T13:52:23;1.60;;;1.50;;
20865;SDS011;10593;48.398;10.698;2022-08-05T13:54:54;1.70;;;1.60;;
20865;SDS011;10593;48.398;10.698;2022-08-05T13:57:20;1.98;;;1.83;;
20865;SDS011;10593;48.398;10.698;2022-08-05T13:59:46;16.08;;;2.65;;
20865;SDS011;10593;48.398;10.698;2022-08-05T14:02:12;3.47;;;1.92;;
20865;SDS011;10593;48.398;10.698;2022-08-05T14:04:40;1.73;;;1.63;;
20865;SDS011;10593;48.398;10.698;2022-08-05T14:07:28;1.77;;;1.67;;
20865;SDS011;10593;48.398;10.698;2022-08-05T14:09:59;1.92;;;1.55;;
20865;SDS011;10593;48.398;10.698;2022-08-05T14:12:26;1.80;;;1.70;;
20865;SDS011;10593;48.398;10.698;2022-08-05T14:14:52;2.97;;;1.88;;
20865;SDS011;10593;48.398;10.698;2022-08-05T14:17:18;1.77;;;1.55;;
20865;SDS011;10593;48.398;10.698;2022-08-05T14:19:44;1.38;;;1.23;;
20865;SDS011;10593;48.398;10.698;2022-08-05T14:22:10;1.50;;;1.40;;
20865;SDS011;10593;48.398;10.698;2022-08-05T14:24:36;1.90;;;1.80;;
20865;SDS011;10593;48.398;10.698;2022-08-05T14:27:03;2.30;;;1.60;;
20865;SDS011;10593;48.398;10.698;2022-08-05T14:29:30;1.60;;;1.50;;
20865;SDS011;10593;48.398;10.698;2022-08-05T14:31:56;1.63;;;1.52;;
20865;SDS011;10593;48.398;10.698;2022-08-05T14:34:21;1.63;;;1.52;;
20865;SDS011;10593;48.398;10.698;2022-08-05T14:36:47;2.10;;;2.00;;
20865;SDS011;10593;48.398;10.698;2022-08-05T14:39:13;1.80;;;1.70;;
20865;SDS011;10593;48.398;10.698;2022-08-05T14:41:38;3.03;;;1.77;;
20865;SDS011;10593;48.398;10.698;2022-08-05T14:44:04;1.60;;;1.42;;
20865;SDS011;10593;48.398;10.698;2022-08-05T14:46:30;2.03;;;1.80;;
20865;SDS011;10593;48.398;10.698;2022-08-05T14:48:57;1.90;;;1.73;;
20865;SDS011;10593;48.398;10.698;2022-08-05T14:51:24;3.67;;;1.63;;
20865;SDS011;10593;48.398;10.698;2022-08-05T14:53:50;3.90;;;2.20;;
20865;SDS011;10593;48.398;10.698;2022-08-05T14:56:15;2.22;;;2.03;;
20865;SDS011;10593;48.398;10.698;2022-08-05T14:58:42;1.98;;;1.40;;
20865;SDS011;10593;48.398;10.698;2022-08-05T15:01:08;1.73;;;1.63;;
20865;SDS011;10593;48.398;10.698;2022-08-05T15:03:34;2.00;;;1.70;;
20865;SDS011;10593;48.398;10.698;2022-08-05T15:06:00;2.40;;;2.30;;
20865;SDS011;10593;48.398;10.698;2022-08-05T15:08:28;1.95;;;1.83;;
20865;SDS011;10593;48.398;10.698;2022-08-05T15:10:53;2.25;;;2.10;;
20865;SDS011;10593;48.398;10.698;2022-08-05T15:13:19;1.63;;;1.53;;
20865;SDS011;10593;48.398;10.698;2022-08-05T15:15:45;1.73;;;1.63;;
20865;SDS011;10593;48.398;10.698;2022-08-05T15:18:10;2.00;;;1.73;;